Time;durP1;ratioP1;P1;durP2;ratioP2;P2;SDS_P1;SDS_P2;PMS_P1;PMS_P2;Temp;Humidity;BMP_temperature;BMP_pressure;BME280_temperature;BME280_humidity;BME280_pressure;Samples;Min_cycle;Max_cycle;Signal;HPM_P1;HPM_P2
2021/10/09 00:03:48;;;;;;;0.20;0.10;;;19.30;99.90;;;;;;20656434;28;20669;-68
2021/10/09 00:13:51;;;;;;;10.13;0.50;;;19.40;99.90;;;;;;20653583;28;20258;-69
2021/10/09 00:23:57;;;;;;;0.30;0.30;;;19.40;99.90;;;;;;20663975;28;20201;-69
2021/10/09 00:34:00;;;;;;;0.20;0.10;;;19.30;99.90;;;;;;20709622;28;20230;-70
2021/10/09 00:44:13;;;;;;;0.20;0.10;;;19.20;99.90;;;;;;20652419;28;20211;-68
2021/10/09 00:54:19;;;;;;;0.20;0.13;;;19.10;99.90;;;;;;20652770;28;20588;-67
2021/10/09 01:04:24;;;;;;;0.73;0.67;;;19.10;99.90;;;;;;20654338;28;20235;-68
2021/10/09 01:14:28;;;;;;;0.20;0.00;;;18.90;99.90;;;;;;20652642;28;20325;-67
2021/10/09 01:24:33;;;;;;;0.20;0.07;;;18.70;99.90;;;;;;20669088;28;20313;-69
2021/10/09 01:34:37;;;;;;;1.07;0.53;;;18.60;99.90;;;;;;20717112;28;20680;-68
2021/10/09 01:44:42;;;;;;;0.60;0.23;;;18.40;99.90;;;;;;20665704;28;20246;-67
2021/10/09 01:54:46;;;;;;;0.20;0.10;;;18.20;99.90;;;;;;20665834;28;20195;-68
2021/10/09 02:04:51;;;;;;;0.20;0.00;;;18.10;99.90;;;;;;20664413;28;20294;-68
2021/10/09 02:14:59;;;;;;;0.20;0.10;;;18.10;99.90;;;;;;20664577;28;20210;-68
2021/10/09 02:25:26;;;;;;;0.20;0.00;;;18.10;99.90;;;;;;20683079;28;20306;-67
2021/10/09 02:35:29;;;;;;;0.20;0.10;;;17.90;99.90;;;;;;20704596;28;20545;-68
2021/10/09 02:45:35;;;;;;;0.20;0.20;;;17.70;99.90;;;;;;20662097;28;20251;-68
2021/10/09 02:55:38;;;;;;;0.20;0.10;;;17.60;99.90;;;;;;20661496;28;20218;-67
2021/10/09 03:05:43;;;;;;;0.20;0.20;;;17.50;99.90;;;;;;20672861;23;20704;-66
2021/10/09 03:15:47;;;;;;;0.30;0.23;;;17.50;99.90;;;;;;20660171;28;20219;-66
2021/10/09 03:25:52;;;;;;;0.20;0.10;;;17.40;99.90;;;;;;20684549;28;20560;-67
2021/10/09 03:35:55;;;;;;;0.30;0.13;;;17.20;99.90;;;;;;20697365;28;20203;-66
2021/10/09 03:46:04;;;;;;;0.80;0.70;;;17.30;99.90;;;;;;20658046;28;20310;-67
2021/10/09 03:56:08;;;;;;;0.20;0.10;;;17.40;99.90;;;;;;20695537;28;20246;-67
2021/10/09 04:06:13;;;;;;;0.30;0.27;;;17.40;99.90;;;;;;20678022;23;20240;-67
2021/10/09 04:16:18;;;;;;;0.40;0.40;;;17.60;99.90;;;;;;20655157;28;20207;-68
2021/10/09 04:26:23;;;;;;;0.37;0.30;;;17.70;99.90;;;;;;20685300;28;20269;-69
2021/10/09 04:36:26;;;;;;;0.20;0.10;;;17.70;99.90;;;;;;20689205;28;20195;-68
2021/10/09 04:46:31;;;;;;;0.37;0.20;;;17.80;99.90;;;;;;20653017;28;20258;-69
2021/10/09 04:56:35;;;;;;;0.20;0.10;;;17.80;99.90;;;;;;20651295;28;20292;-67
2021/10/09 05:06:40;;;;;;;0.20;0.10;;;17.70;99.90;;;;;;20665636;28;20219;-68
2021/10/09 05:16:43;;;;;;;0.70;0.30;;;17.60;99.90;;;;;;20667627;28;20196;-68
2021/10/09 05:26:48;;;;;;;0.20;0.10;;;17.80;99.90;;;;;;20701865;28;20229;-68
2021/10/09 05:36:52;;;;;;;0.20;0.20;;;17.90;99.90;;;;;;20748829;28;20293;-68
2021/10/09 05:46:57;;;;;;;0.40;0.20;;;17.70;99.90;;;;;;20747667;28;20221;-67
2021/10/09 05:57:06;;;;;;;1.47;0.53;;;17.60;99.90;;;;;;20744916;28;20634;-68
2021/10/09 06:42:03;;;;;;;3.10;1.07;;;17.30;99.90;;;;;;20640928;28;20204;-68
2021/10/09 06:49:10;;;;;;;0.20;0.20;;;17.50;99.90;;;;;;20660045;28;20665;-69
2021/10/09 06:59:36;;;;;;;1.43;1.23;;;17.70;99.90;;;;;;20660171;28;20556;-67
2021/10/09 07:09:45;;;;;;;0.20;0.20;;;18.10;99.90;;;;;;20658054;28;20230;-70
2021/10/09 07:19:49;;;;;;;0.40;0.20;;;18.40;99.90;;;;;;20657179;28;20276;-67
2021/10/09 07:29:56;;;;;;;1.03;0.63;;;18.80;99.90;;;;;;20716599;28;20230;-67
2021/10/09 07:39:59;;;;;;;0.50;0.30;;;18.90;99.90;;;;;;20737120;28;20190;-68
2021/10/09 07:50:08;;;;;;;0.30;0.20;;;19.00;99.90;;;;;;20736534;28;20222;-68
2021/10/09 08:00:12;;;;;;;0.20;0.10;;;18.90;99.90;;;;;;20734534;28;20227;-67
2021/10/09 08:10:17;;;;;;;0.20;0.13;;;19.30;99.90;;;;;;20734883;28;20222;-67
2021/10/09 08:20:23;;;;;;;1.80;0.30;;;19.60;99.90;;;;;;20716438;28;20195;-67
2021/10/09 08:40:49;;;;;;;0.57;0.57;;;20.00;99.90;;;;;;20651236;28;20207;-66
2021/10/09 08:50:55;;;;;;;0.40;0.30;;;20.30;99.90;;;;;;20650219;28;20227;-66
2021/10/09 09:01:05;;;;;;;0.30;0.30;;;20.30;99.90;;;;;;20650506;28;20226;-67
2021/10/09 09:32:27;;;;;;;0.50;0.40;;;20.80;99.90;;;;;;20607683;28;20324;-68
2021/10/09 09:42:31;;;;;;;0.60;0.60;;;21.00;99.90;;;;;;20607090;28;20206;-69
2021/10/09 09:52:42;;;;;;;0.20;0.13;;;21.60;99.90;;;;;;20599761;28;20220;-68
2021/10/09 10:02:49;;;;;;;0.20;0.20;;;21.80;99.90;;;;;;20622736;28;20681;-69
2021/10/09 10:12:57;;;;;;;0.50;0.38;;;22.40;99.90;;;;;;20618467;28;20684;-68
2021/10/09 10:23:01;;;;;;;1.05;0.52;;;22.90;99.90;;;;;;20625997;28;20195;-68
2021/10/09 10:33:40;;;;;;;0.20;0.10;;;23.20;99.90;;;;;;20742464;28;20672;-68
2021/10/09 10:43:46;;;;;;;0.20;0.10;;;23.10;99.90;;;;;;20669615;28;20704;-67
2021/10/09 10:54:29;;;;;;;0.20;0.20;;;22.50;99.90;;;;;;20658318;28;20306;-65
2021/10/09 11:04:35;;;;;;;0.20;0.20;;;22.20;99.90;;;;;;20656206;28;20318;-65
2021/10/09 11:14:40;;;;;;;0.82;0.68;;;23.00;99.90;;;;;;20614991;28;20224;-66
2021/10/09 11:24:46;;;;;;;0.50;0.38;;;24.20;99.90;;;;;;20616220;28;20209;-66
2021/10/09 11:34:54;;;;;;;0.80;0.70;;;24.80;99.90;;;;;;20623314;28;20217;-68
2021/10/09 11:45:10;;;;;;;0.20;0.20;;;24.90;99.90;;;;;;20611096;28;20191;-67
2021/10/09 11:55:17;;;;;;;0.63;0.63;;;23.70;99.90;;;;;;20594163;28;20247;-66
2021/10/09 12:05:23;;;;;;;0.20;0.10;;;23.30;99.90;;;;;;20611578;28;20679;-66
2021/10/09 12:15:28;;;;;;;0.70;0.70;;;23.70;99.90;;;;;;20609666;28;20307;-66
2021/10/09 12:25:32;;;;;;;0.82;0.40;;;23.00;99.90;;;;;;20612582;28;20192;-68
2021/10/09 12:35:39;;;;;;;0.73;0.20;;;23.40;99.90;;;;;;20598545;28;20238;-67
2021/10/09 12:45:44;;;;;;;0.52;0.52;;;23.30;99.90;;;;;;20645050;28;20196;-68
2021/10/09 12:55:49;;;;;;;1.10;0.95;;;23.50;99.90;;;;;;20632369;28;20215;-67
2021/10/09 13:05:52;;;;;;;0.40;0.40;;;23.40;99.90;;;;;;20609466;28;20813;-67
2021/10/09 13:15:57;;;;;;;1.33;0.70;;;22.80;99.90;;;;;;20585396;28;20439;-68
2021/10/09 13:26:01;;;;;;;0.47;0.47;;;23.90;99.90;;;;;;20637839;28;20195;-66
2021/10/09 13:36:07;;;;;;;0.30;0.28;;;24.20;99.90;;;;;;20659067;28;20227;-68
2021/10/09 13:46:13;;;;;;;0.47;0.33;;;23.10;99.90;;;;;;20610322;28;21004;-67
2021/10/09 13:56:19;;;;;;;0.20;0.10;;;22.00;99.90;;;;;;20638903;28;20282;-66
2021/10/09 14:06:25;;;;;;;0.57;0.45;;;22.10;99.90;;;;;;20660805;28;20231;-67
2021/10/09 14:16:30;;;;;;;0.30;0.30;;;22.30;99.90;;;;;;20660873;28;20227;-66
2021/10/09 14:26:33;;;;;;;0.23;0.13;;;22.30;99.90;;;;;;20692555;28;20199;-68
2021/10/09 14:36:38;;;;;;;0.20;0.10;;;22.80;99.90;;;;;;20739410;28;20222;-68
2021/10/09 15:28:10;;;;;;;0.20;0.10;;;21.90;99.90;;;;;;20665089;28;20229;-67
2021/10/09 15:38:15;;;;;;;0.30;0.13;;;21.40;99.90;;;;;;20733430;28;20540;-67
2021/10/09 15:48:31;;;;;;;0.20;0.10;;;21.30;99.90;;;;;;20643945;28;20578;-71
2021/10/09 15:58:36;;;;;;;0.40;0.40;;;21.00;99.90;;;;;;20651327;28;20590;-66
2021/10/09 16:08:39;;;;;;;0.33;0.13;;;20.90;99.90;;;;;;20587286;28;20271;-66
2021/10/09 16:19:06;;;;;;;0.20;0.10;;;20.80;99.90;;;;;;20639676;28;20278;-68
2021/10/09 16:29:10;;;;;;;0.40;0.20;;;20.60;99.90;;;;;;20703060;28;20254;-67
2021/10/09 16:39:15;;;;;;;0.20;0.10;;;20.50;99.90;;;;;;20732221;28;20209;-69
2021/10/09 16:49:19;;;;;;;0.37;0.37;;;20.60;99.90;;;;;;20591048;28;20228;-67
2021/10/09 16:59:25;;;;;;;0.60;0.37;;;20.40;99.90;;;;;;20568367;28;20379;-66
2021/10/09 17:09:28;;;;;;;0.20;0.10;;;20.50;99.90;;;;;;20632504;28;20231;-68
2021/10/09 17:19:34;;;;;;;0.20;0.10;;;20.40;99.90;;;;;;20649395;28;20191;-69
2021/10/09 17:29:38;;;;;;;0.20;0.10;;;20.30;99.90;;;;;;20705022;28;20227;-67
2021/10/09 17:39:43;;;;;;;0.20;0.20;;;20.30;99.90;;;;;;20729314;28;20203;-67
2021/10/09 17:49:46;;;;;;;0.20;0.13;;;20.30;99.90;;;;;;20729459;28;20310;-67
2021/10/09 17:59:51;;;;;;;0.27;0.17;;;20.30;99.90;;;;;;20727027;28;20301;-67
2021/10/09 18:09:55;;;;;;;0.40;0.20;;;20.30;99.90;;;;;;20733462;28;20286;-68
2021/10/09 18:20:00;;;;;;;1.13;0.20;;;20.00;99.90;;;;;;20741518;28;20281;-68
2021/10/09 18:30:05;;;;;;;5.30;1.63;;;19.60;99.90;;;;;;20680397;28;20275;-69
2021/10/09 18:40:11;;;;;;;7.73;0.63;;;19.90;99.90;;;;;;20659519;28;20262;-67
2021/10/09 18:50:14;;;;;;;0.20;0.20;;;19.80;99.90;;;;;;20639029;28;20302;-67
2021/10/09 19:00:19;;;;;;;1.13;0.50;;;19.70;99.90;;;;;;20629257;28;20711;-67
2021/10/09 19:10:23;;;;;;;0.20;0.00;;;19.80;99.90;;;;;;20670093;28;20712;-66
2021/10/09 19:20:28;;;;;;;0.20;0.10;;;20.10;99.90;;;;;;20676774;28;20699;-67
2021/10/09 19:30:33;;;;;;;0.23;0.20;;;20.20;99.90;;;;;;20618769;28;20680;-67
2021/10/09 19:40:39;;;;;;;0.20;0.20;;;20.20;99.90;;;;;;20640105;28;20195;-68
2021/10/09 19:50:48;;;;;;;0.20;0.00;;;20.20;99.90;;;;;;20733853;28;20316;-67
2021/10/09 20:00:53;;;;;;;0.20;0.17;;;20.20;99.90;;;;;;20703837;28;20225;-67
2021/10/09 20:10:59;;;;;;;0.20;0.10;;;20.10;99.90;;;;;;20598470;28;20231;-67
2021/10/09 20:21:05;;;;;;;0.50;0.37;;;20.10;99.90;;;;;;20656694;28;20196;-69
2021/10/09 20:31:08;;;;;;;0.60;0.60;;;20.10;99.90;;;;;;20575350;28;20224;-69
2021/10/09 20:41:16;;;;;;;0.20;0.00;;;20.10;99.90;;;;;;20578006;28;20797;-70
2021/10/09 20:51:20;;;;;;;0.70;0.60;;;19.90;99.90;;;;;;20578601;28;20227;-68
2021/10/09 21:01:26;;;;;;;0.30;0.30;;;20.00;99.90;;;;;;20575268;28;20228;-67
2021/10/09 21:11:33;;;;;;;0.20;0.07;;;20.10;99.90;;;;;;20589675;28;20250;-68
2021/10/09 21:32:01;;;;;;;0.20;0.10;;;20.00;99.90;;;;;;20652564;28;20231;-71
2021/10/09 21:42:06;;;;;;;0.27;0.23;;;20.00;99.90;;;;;;20655660;28;20299;-69
2021/10/09 21:52:10;;;;;;;0.43;0.43;;;19.70;99.90;;;;;;20627362;28;20224;-72
2021/10/09 22:02:25;;;;;;;0.80;0.80;;;19.10;99.90;;;;;;20622051;28;20223;-70
2021/10/09 22:33:36;;;;;;;0.20;0.10;;;18.00;99.90;;;;;;20623799;28;20216;-68
2021/10/09 22:43:41;;;;;;;0.47;0.13;;;17.70;99.90;;;;;;20620817;28;20270;-68
2021/10/09 22:53:46;;;;;;;0.57;0.50;;;17.70;99.90;;;;;;20619555;28;20227;-69
2021/10/09 23:03:51;;;;;;;0.20;0.10;;;17.80;99.90;;;;;;20639239;28;20274;-70
2021/10/09 23:13:55;;;;;;;0.57;0.40;;;17.60;99.90;;;;;;20636042;28;20228;-71
2021/10/09 23:24:00;;;;;;;0.47;0.47;;;17.60;99.90;;;;;;20616714;28;20274;-68
2021/10/09 23:34:03;;;;;;;0.20;0.20;;;17.60;99.90;;;;;;20615087;28;20614;-69
2021/10/09 23:44:08;;;;;;;0.57;0.53;;;17.30;99.90;;;;;;20613432;28;20298;-68
2021/10/09 23:54:12;;;;;;;0.20;0.10;;;17.40;99.90;;;;;;20614529;28;20573;-69
